Country Club Hills, Missouri
Current Conditions -  °F | °C
As of 1:51 PM on Friday 24 Oct 2014 (Local Time) from KSTL Reporting Station
Broken Clouds Broken Clouds  
Wind Chill: 72°   Ceiling: 25000
Heat Index: 72°   Visibility: 10mi
Dew Point: 52°   Wind: 6mph
Humidity: 49%   Direction: 200°SSW
Pressure: 30.06"   Gusts: NA
Location:  38.7423°N, 90.2608°W
Report Text: KSTL 241851Z 20005KT 10SM BKN250 22/11 A3006 RMK AO2 SLP175 T02220111
Loading
Personal Weather Stations






























Interactive Weather Map
Tropical Storm Tracking
New forecast layout! Learn more

10-Day Weather Forecast

Advertisements
Track Severe Weather on mobile